Mariinsk, Russia
Current Conditions -  °F | °C
As of 9:30 AM on Sunday 26 Oct 2014 (Local Time) from UNEE Reporting Station
Overcast Overcast  
Wind Chill: 15°   Ceiling: 2400
Heat Index: 21°   Visibility: 6mi
Dew Point: 10°   Wind: 4mph
Humidity: 63%   Direction: 240°WSW
Pressure: 29.97"   Gusts: NA
Location:  56.21°N, 87.75°E
Report Text: UNEE 260230Z 24002MPS 9999 BKN024 OVC066 M06/M12 Q1015 NOSIGRMK QFE738 23491045
Loading
Personal Weather Stations






























Interactive Weather Map
Tropical Storm Tracking
New forecast layout! Learn more

10-Day Weather Forecast

Advertisements
Track Severe Weather on mobile